createdAt,value
2023-02-19T00:04:03.963Z,1.50
2023-02-19T00:09:07.304Z,1.52
2023-02-19T00:14:12.228Z,1.50
2023-02-19T00:19:18.232Z,1.58
2023-02-19T00:24:22.894Z,1.40
2023-02-19T00:29:27.149Z,1.08
2023-02-19T00:34:32.830Z,1.70
2023-02-19T00:39:36.163Z,1.40
2023-02-19T00:44:39.659Z,1.30
2023-02-19T00:49:44.390Z,1.50
2023-02-19T00:54:47.676Z,1.30
2023-02-19T00:59:51.060Z,1.45
2023-02-19T01:04:55.829Z,1.23
2023-02-19T01:09:59.140Z,1.30
2023-02-19T01:15:02.300Z,1.02
2023-02-19T01:20:07.601Z,1.42
2023-02-19T01:25:11.201Z,1.60
2023-02-19T01:30:15.199Z,1.60
2023-02-19T01:35:19.995Z,1.33
2023-02-19T01:40:23.372Z,1.30
2023-02-19T01:45:29.956Z,1.20
2023-02-19T01:50:39.922Z,1.25
2023-02-19T01:55:47.189Z,1.50
2023-02-19T02:00:51.869Z,0.95
2023-02-19T02:06:01.769Z,1.50
2023-02-19T02:11:05.645Z,1.40
2023-02-19T02:16:23.029Z,1.35
2023-02-19T02:21:40.330Z,1.10
2023-02-19T02:27:09.923Z,1.02
2023-02-19T02:32:18.416Z,1.20
2023-02-19T02:37:22.076Z,1.13
2023-02-19T02:42:31.208Z,1.20
2023-02-19T02:47:44.982Z,0.95
2023-02-19T02:53:08.801Z,1.05
2023-02-19T02:58:13.131Z,0.90
2023-02-19T03:03:22.409Z,0.90
2023-02-19T03:08:30.692Z,0.80
2023-02-19T03:13:57.664Z,0.85
2023-02-19T03:19:22.194Z,1.00
2023-02-19T03:24:48.079Z,0.85
2023-02-19T03:29:53.977Z,0.80
2023-02-19T03:35:02.830Z,1.05
2023-02-19T03:40:06.641Z,0.90
2023-02-19T03:45:32.961Z,0.80
2023-02-19T03:50:44.704Z,0.80
2023-02-19T03:55:55.210Z,1.20
2023-02-19T04:01:05.194Z,1.00
2023-02-19T04:06:15.563Z,0.80
2023-02-19T04:11:21.427Z,1.00
2023-02-19T04:16:29.764Z,0.95
2023-02-19T04:21:36.127Z,1.00
2023-02-19T04:26:40.290Z,1.00
2023-02-19T04:31:43.769Z,0.95
2023-02-19T04:36:49.646Z,0.70
2023-02-19T04:41:52.862Z,0.77
2023-02-19T04:46:57.176Z,1.05
2023-02-19T04:52:01.956Z,0.88
2023-02-19T04:57:05.321Z,0.85
2023-02-19T05:02:08.697Z,0.90
2023-02-19T05:12:40.763Z,0.85
2023-02-19T05:17:44.112Z,1.00
2023-02-19T05:22:48.778Z,1.00
2023-02-19T05:28:12.264Z,0.90
2023-02-19T05:33:16.437Z,0.70
2023-02-19T05:38:21.602Z,0.90
2023-02-19T05:43:25.001Z,1.10
2023-02-19T05:48:28.422Z,0.80
2023-02-19T05:53:33.527Z,0.85
2023-02-19T05:58:36.939Z,0.85
2023-02-19T06:03:41.181Z,0.80
2023-02-19T06:08:46.574Z,1.05
2023-02-19T06:13:50.669Z,0.77
2023-02-19T06:18:54.879Z,0.70
2023-02-19T06:23:59.496Z,0.52
2023-02-19T06:29:02.914Z,0.50
2023-02-19T06:34:06.437Z,0.50
2023-02-19T06:39:13.038Z,0.32
2023-02-19T06:44:16.368Z,0.52
2023-02-19T06:49:19.694Z,0.30
2023-02-19T06:54:28.080Z,0.40
2023-02-19T06:59:31.426Z,0.32
2023-02-19T07:04:34.800Z,0.40
2023-02-19T07:09:39.600Z,0.30
2023-02-19T07:14:42.830Z,0.40
2023-02-19T07:19:46.123Z,0.30
2023-02-19T07:24:50.744Z,0.38
2023-02-19T07:29:54.038Z,0.30
2023-02-19T07:34:57.603Z,0.30
2023-02-19T07:40:02.545Z,0.28
2023-02-19T07:45:09.863Z,0.30
2023-02-19T07:50:14.169Z,0.22
2023-02-19T07:55:19.007Z,0.20
2023-02-19T08:00:23.065Z,0.20
2023-02-19T08:05:29.136Z,0.30
2023-02-19T08:10:51.330Z,0.20
2023-02-19T08:15:59.638Z,0.20
2023-02-19T08:21:11.728Z,0.30
2023-02-19T08:26:16.905Z,0.30
2023-02-19T08:36:52.019Z,0.20
2023-02-19T08:41:59.972Z,0.30
2023-02-19T08:47:05.858Z,0.30
2023-02-19T08:52:09.087Z,0.30
2023-02-19T08:57:13.831Z,0.30
2023-02-19T09:02:17.112Z,0.32
2023-02-19T09:07:20.660Z,0.38
2023-02-19T09:12:25.811Z,0.40
2023-02-19T09:17:29.311Z,0.30
2023-02-19T09:22:33.772Z,0.30
2023-02-19T09:27:38.461Z,0.30
2023-02-19T09:32:41.940Z,0.32
2023-02-19T09:37:45.494Z,0.30
2023-02-19T09:42:52.337Z,0.50
2023-02-19T09:47:58.388Z,0.47
2023-02-19T09:53:07.101Z,0.45
2023-02-19T09:58:32.084Z,0.50
2023-02-19T10:03:41.527Z,0.50
2023-02-19T10:08:47.499Z,0.50
2023-02-19T10:13:55.372Z,0.60
2023-02-19T10:19:04.908Z,0.38
2023-02-19T10:24:09.629Z,0.70
2023-02-19T10:29:17.664Z,0.55
2023-02-19T10:34:23.562Z,0.60
2023-02-19T10:39:42.605Z,0.60
2023-02-19T10:44:52.886Z,0.60
2023-02-19T10:49:59.816Z,0.50
2023-02-19T10:55:17.080Z,0.47
2023-02-19T11:00:27.636Z,0.68
2023-02-19T11:05:32.996Z,0.45
2023-02-19T11:10:40.702Z,0.40
2023-02-19T11:15:52.359Z,0.60
2023-02-19T11:20:57.756Z,0.50
2023-02-19T11:26:05.148Z,0.40
2023-02-19T11:31:24.018Z,0.40
2023-02-19T11:36:33.307Z,0.50
2023-02-19T11:41:52.636Z,0.43
2023-02-19T11:47:15.051Z,0.43
2023-02-19T11:58:48.247Z,0.60
2023-02-19T12:04:28.857Z,0.50
2023-02-19T12:09:43.416Z,0.45
2023-02-19T12:15:34.170Z,0.50
2023-02-19T12:20:52.079Z,0.70
2023-02-19T12:25:59.735Z,0.50
2023-02-19T12:31:23.270Z,0.40
2023-02-19T12:36:35.950Z,0.40
2023-02-19T12:41:45.935Z,0.70
2023-02-19T12:46:54.119Z,0.57
2023-02-19T12:52:03.115Z,0.63
2023-02-19T12:57:11.539Z,0.50
2023-02-19T13:02:19.634Z,0.57
2023-02-19T13:07:31.385Z,0.47
2023-02-19T13:12:38.302Z,0.80
2023-02-19T13:17:46.235Z,0.63
2023-02-19T13:23:16.946Z,0.68
2023-02-19T13:28:38.738Z,0.60
2023-02-19T13:33:49.553Z,0.70
2023-02-19T13:38:57.311Z,0.90
2023-02-19T13:44:06.193Z,3.78
2023-02-19T13:49:43.322Z,0.90
2023-02-19T13:54:48.201Z,0.60
2023-02-19T13:59:52.356Z,0.50
2023-02-19T14:05:00.477Z,3.25
2023-02-19T14:10:13.058Z,7.22
2023-02-19T14:15:44.043Z,2.10
2023-02-19T14:20:47.610Z,6.88
2023-02-19T14:26:05.134Z,2.70
2023-02-19T14:31:22.434Z,2.55
2023-02-19T14:36:40.678Z,1.20
2023-02-19T14:41:48.203Z,1.67
2023-02-19T14:47:00.030Z,1.45
2023-02-19T14:52:09.544Z,2.70
2023-02-19T14:57:20.546Z,0.80
2023-02-19T15:02:26.078Z,0.90
2023-02-19T15:07:33.256Z,0.90
2023-02-19T15:12:47.165Z,1.10
2023-02-19T15:17:52.324Z,1.00
2023-02-19T15:23:01.048Z,0.70
2023-02-19T15:28:28.636Z,0.70
2023-02-19T15:33:33.327Z,0.80
2023-02-19T15:38:37.641Z,0.82
2023-02-19T15:43:46.234Z,0.68
2023-02-19T15:48:52.384Z,0.85
2023-02-19T15:54:05.550Z,0.52
2023-02-19T15:59:18.826Z,0.85
2023-02-19T16:04:22.113Z,0.80
2023-02-19T16:09:31.002Z,0.98
2023-02-19T16:14:37.765Z,1.00
2023-02-19T16:19:48.218Z,0.57
2023-02-19T16:24:57.174Z,1.00
2023-02-19T16:30:10.605Z,1.08
2023-02-19T16:35:38.262Z,0.80
2023-02-19T16:41:07.288Z,1.02
2023-02-19T16:46:14.099Z,0.73
2023-02-19T16:51:23.510Z,0.65
2023-02-19T16:56:27.074Z,0.60
2023-02-19T17:01:32.191Z,0.90
2023-02-19T17:06:37.848Z,0.90
2023-02-19T17:11:41.260Z,0.90
2023-02-19T17:16:48.341Z,0.90
2023-02-19T17:21:52.941Z,0.77
2023-02-19T17:26:56.383Z,1.05
2023-02-19T17:32:03.249Z,0.80
2023-02-19T17:37:08.405Z,0.93
2023-02-19T17:42:11.675Z,1.25
2023-02-19T17:47:16.479Z,1.00
2023-02-19T17:52:23.211Z,0.98
2023-02-19T17:57:32.804Z,1.45
2023-02-19T18:02:37.717Z,1.60
2023-02-19T18:07:43.740Z,1.13
2023-02-19T18:12:54.791Z,1.52
2023-02-19T18:18:02.693Z,1.40
2023-02-19T18:23:08.983Z,1.38
2023-02-19T18:28:15.734Z,1.10
2023-02-19T18:33:24.748Z,1.58
2023-02-19T18:38:30.270Z,1.45
2023-02-19T18:43:35.032Z,1.27
2023-02-19T18:48:51.745Z,1.50
2023-02-19T18:54:11.060Z,1.38
2023-02-19T18:59:16.309Z,1.70
2023-02-19T19:04:21.331Z,1.60
2023-02-19T19:09:33.885Z,1.55
2023-02-19T19:14:46.520Z,1.42
2023-02-19T19:19:53.820Z,1.70
2023-02-19T19:24:57.194Z,1.60
2023-02-19T19:30:10.826Z,1.55
2023-02-19T19:35:19.791Z,1.40
2023-02-19T19:40:23.100Z,1.27
2023-02-19T19:45:26.496Z,1.00
2023-02-19T19:50:33.094Z,1.20
2023-02-19T19:55:40.551Z,1.35
2023-02-19T20:06:13.970Z,1.83
2023-02-19T20:11:17.390Z,1.52
2023-02-19T20:16:28.373Z,1.55
2023-02-19T20:21:33.416Z,1.20
2023-02-19T20:26:36.852Z,1.38
2023-02-19T20:31:40.909Z,1.30
2023-02-19T20:36:49.889Z,1.98
2023-02-19T20:41:53.453Z,1.60
2023-02-19T20:46:58.167Z,1.60
2023-02-19T20:52:05.982Z,1.60
2023-02-19T20:57:09.608Z,1.67
2023-02-19T21:02:18.699Z,1.75
2023-02-19T21:07:23.456Z,1.30
2023-02-19T21:12:26.689Z,1.40
2023-02-19T21:17:29.974Z,1.45
2023-02-19T21:22:34.700Z,1.48
2023-02-19T21:27:39.721Z,1.92
2023-02-19T21:32:45.007Z,1.80
2023-02-19T21:37:51.919Z,1.40
2023-02-19T21:42:55.265Z,1.08
2023-02-19T21:47:59.052Z,1.70
2023-02-19T21:53:05.590Z,1.45
2023-02-19T21:58:12.125Z,1.98
2023-02-19T22:03:20.978Z,2.05
2023-02-19T22:08:25.652Z,1.88
2023-02-19T22:13:28.907Z,2.38
2023-02-19T22:18:32.254Z,1.85
2023-02-19T22:23:37.044Z,1.98
2023-02-19T22:28:40.520Z,2.15
2023-02-19T22:33:44.094Z,2.35
2023-02-19T22:38:49.637Z,2.00
2023-02-19T22:43:55.697Z,1.88
2023-02-19T22:49:00.198Z,1.83
2023-02-19T22:54:04.969Z,1.90
2023-02-19T22:59:08.362Z,1.70
2023-02-19T23:04:13.924Z,1.73
2023-02-19T23:09:21.370Z,1.67
2023-02-19T23:14:24.723Z,1.38
2023-02-19T23:19:52.916Z,1.60
2023-02-19T23:24:59.755Z,1.85
2023-02-19T23:30:03.077Z,1.60
2023-02-19T23:35:06.686Z,1.80
2023-02-19T23:40:13.219Z,2.60
2023-02-19T23:45:17.499Z,2.08
2023-02-19T23:50:21.176Z,1.90
2023-02-19T23:55:26.285Z,1.60
